Terminal Aerodrome Forecast
Issued by NWS

Home | Current Version | Previous Version | Text Only | Print | Product List | Glossary Off
Versions: 1 2 3 4 5 6 7 8 9 10 11 12 13 14 15 16 17 18 19

000
FTUS43 KGRB 200600 AAA
TAFAUW
TAF AMD
KAUW 200622Z 2006/2106 29012KT P6SM SCT035 SCT050
      TEMPO 2006/2008 -SHSN BKN035
     FM201600 29012G20KT P6SM SCT035 BKN050
     FM202300 28005KT P6SM FEW050=

USA.gov is the U.S. government's official web portal to all federal, state and local government web resources and services.